< < Back
Terminal Aerodrome Forecast


Current Version              Previous Versions:   1  2  3  4  5  6  7  8  9  

Terminal Aerodrome Forecast

000
FTUS42 KFFC 252343 AAA
TAFMCN
TAF AMD
KMCN 252343Z 2600/2624 31008KT P6SM SCT060 BKN100
      TEMPO 2600/2602 VRB15G25KT 3SM TSRA BR BKN035CB
     FM260200 34006KT P6SM SCT070
     FM261000 06008KT P6SM BKN015
     FM261500 07009KT P6SM BKN035
     FM261700 08010KT P6SM BKN050 PROB30 2618/2624 5SM -TSRA
      BKN035CB=



Latest METAR

573
SAUS80 KWBC 260100
MTRMCN
METAR KMCN 260053Z AUTO VRB05KT 10SM FEW030 BKN090 OVC110 28/20 A3003
RMK AO2 RAB02E47 SLP164 P0001 T02780200 TSNO


USA.gov is the U.S. government's official web portal to all federal, state and local government web resources and services.